Time;durP1;ratioP1;P1;durP2;ratioP2;P2;SDS_P1;SDS_P2;PMS_P1;PMS_P2;Temp;Humidity;BMP_temperature;BMP_pressure;BME280_temperature;BME280_humidity;BME280_pressure;Samples;Min_cycle;Max_cycle;Signal;HPM_P1;HPM_P2
2022/04/09 00:02:04;;;;;;;3.05;0.90;;;;;;;8.90;100.00;94788.78;5035042;28;20045;-70
2022/04/09 00:04:29;;;;;;;2.53;1.08;;;;;;;8.91;100.00;94812.19;5036734;28;20156;-66
2022/04/09 00:06:54;;;;;;;9.15;3.58;;;;;;;8.85;100.00;94811.06;5042828;28;20052;-71
2022/04/09 00:09:20;;;;;;;4.47;1.20;;;;;;;8.90;100.00;94824.28;5035777;28;20107;-68
2022/04/09 00:11:45;;;;;;;13.30;5.45;;;;;;;8.94;100.00;94835.94;5043045;28;20040;-68
2022/04/09 00:14:11;;;;;;;7.85;1.77;;;;;;;8.93;100.00;94822.69;5036481;28;20037;-69
2022/04/09 00:16:38;;;;;;;2.85;1.00;;;;;;;9.08;100.00;94826.09;5041581;28;20036;-69
2022/04/09 00:19:05;;;;;;;6.28;2.00;;;;;;;9.03;100.00;94851.09;5037099;28;20139;-67
2022/04/09 00:21:31;;;;;;;2.63;1.00;;;;;;;8.99;100.00;94834.75;5040367;28;20079;-69
2022/04/09 00:23:57;;;;;;;3.17;0.93;;;;;;;9.03;100.00;94837.47;5040472;28;20555;-69
2022/04/09 00:26:22;;;;;;;4.13;1.30;;;;;;;8.98;100.00;94857.75;5035705;28;20123;-68
2022/04/09 00:28:47;;;;;;;4.05;1.58;;;;;;;8.96;100.00;94846.47;5042823;28;20040;-71
2022/04/09 00:31:13;;;;;;;2.60;1.13;;;;;;;8.96;100.00;94862.84;5028842;28;20044;-68
2022/04/09 00:33:38;;;;;;;3.92;0.60;;;;;;;9.00;100.00;94871.78;5036205;28;20091;-67
2022/04/09 00:36:04;;;;;;;1.98;0.60;;;;;;;9.03;100.00;94865.53;5020235;28;20055;-69
2022/04/09 00:38:30;;;;;;;1.77;0.70;;;;;;;9.04;100.00;94882.69;5042152;28;20427;-67
2022/04/09 00:40:55;;;;;;;2.03;0.60;;;;;;;9.09;100.00;94887.72;5042001;28;20183;-66
2022/04/09 00:43:21;;;;;;;1.23;0.50;;;;;;;9.17;100.00;94889.25;5037031;28;20064;-66
2022/04/09 00:45:50;;;;;;;1.85;0.50;;;;;;;9.16;98.29;94874.81;5039781;28;20044;-67
2022/04/09 00:48:22;;;;;;;1.85;0.60;;;;;;;9.25;95.12;94904.38;5036718;28;20041;-66
2022/04/09 00:50:48;;;;;;;0.40;0.40;;;;;;;9.21;96.19;94894.69;5043089;28;20037;-68
2022/04/09 00:53:18;;;;;;;1.38;0.60;;;;;;;9.18;96.85;94916.16;5037583;28;20037;-68
2022/04/09 00:58:30;;;;;;;1.55;0.40;;;;;;;8.60;100.00;95008.47;5043189;28;20106;-68
2022/04/09 01:00:55;;;;;;;1.73;0.65;;;;;;;7.65;100.00;95036.25;5044342;28;20064;-68
2022/04/09 01:03:21;;;;;;;0.40;0.40;;;;;;;6.58;100.00;95044.84;5036562;28;20657;-66
2022/04/09 01:05:48;;;;;;;0.95;0.50;;;;;;;6.08;100.00;95077.16;5043259;28;20040;-67
2022/04/09 01:08:14;;;;;;;2.40;0.50;;;;;;;5.56;100.00;95087.94;5019598;28;20378;-66
2022/04/09 01:10:39;;;;;;;0.80;0.52;;;;;;;5.65;100.00;95106.66;5040645;28;20044;-70
2022/04/09 01:13:06;;;;;;;3.08;0.47;;;;;;;5.57;100.00;95105.03;5024108;28;20052;-66
2022/04/09 01:15:32;;;;;;;0.43;0.43;;;;;;;5.45;100.00;95123.13;5041750;28;20094;-67
2022/04/09 01:17:59;;;;;;;0.30;0.30;;;;;;;5.38;100.00;95138.56;5040686;28;20041;-65
2022/04/09 01:20:26;;;;;;;0.45;0.45;;;;;;;5.33;100.00;95156.75;5034605;28;20044;-66
2022/04/09 01:22:52;;;;;;;0.50;0.50;;;;;;;5.16;100.00;95158.09;5038924;28;20124;-64
2022/04/09 01:25:17;;;;;;;0.40;0.40;;;;;;;5.16;100.00;95162.75;5038260;28;20048;-70
2022/04/09 01:27:43;;;;;;;1.08;0.30;;;;;;;5.01;100.00;95180.03;5036493;28;20029;-67
2022/04/09 01:30:09;;;;;;;1.10;0.60;;;;;;;5.00;100.00;95186.59;5068278;28;20079;-67
2022/04/09 01:32:35;;;;;;;1.45;0.60;;;;;;;4.70;100.00;95190.03;5053816;28;20127;-67
2022/04/09 01:35:01;;;;;;;0.32;0.32;;;;;;;4.59;100.00;95228.63;5054267;28;20063;-69
2022/04/09 01:37:27;;;;;;;1.02;0.50;;;;;;;4.46;100.00;95276.06;5053140;28;20104;-68
2022/04/09 01:39:53;;;;;;;0.40;0.40;;;;;;;4.28;100.00;95239.72;5046614;28;20116;-67
2022/04/09 01:42:21;;;;;;;0.45;0.45;;;;;;;3.94;100.00;95243.03;5042204;28;20025;-68
2022/04/09 01:44:46;;;;;;;0.30;0.30;;;;;;;3.71;100.00;95272.78;5049184;28;20045;-67
2022/04/09 01:47:11;;;;;;;0.40;0.40;;;;;;;3.68;100.00;95289.72;5044448;28;20048;-66
2022/04/09 01:49:37;;;;;;;0.40;0.40;;;;;;;3.72;100.00;95292.50;5042048;28;20425;-69
2022/04/09 01:52:02;;;;;;;1.85;0.40;;;;;;;3.62;100.00;95302.00;5046232;28;20140;-69
2022/04/09 01:54:28;;;;;;;0.50;0.50;;;;;;;3.57;100.00;95316.59;5047278;28;20040;-68
2022/04/09 01:56:53;;;;;;;5.25;0.90;;;;;;;3.58;100.00;95331.69;5023089;28;20059;-66
2022/04/09 01:59:18;;;;;;;0.50;0.50;;;;;;;3.57;100.00;95349.06;5042424;28;20037;-67
2022/04/09 02:01:44;;;;;;;0.52;0.50;;;;;;;3.41;100.00;95351.03;5041068;28;20108;-69
2022/04/09 02:04:10;;;;;;;1.40;0.60;;;;;;;3.37;100.00;95363.72;5023639;28;20165;-68
2022/04/09 02:06:35;;;;;;;0.50;0.50;;;;;;;3.37;100.00;95364.50;5042071;28;20051;-70
2022/04/09 02:09:01;;;;;;;0.50;0.50;;;;;;;3.38;100.00;95360.63;5025320;28;20033;-68
2022/04/09 02:11:26;;;;;;;0.52;0.52;;;;;;;3.31;100.00;95379.41;5045742;28;20025;-68
2022/04/09 02:13:52;;;;;;;0.68;0.50;;;;;;;3.30;100.00;95385.19;5041822;28;20028;-69
2022/04/09 02:16:18;;;;;;;0.68;0.50;;;;;;;3.35;100.00;95403.84;5025884;28;20545;-66
2022/04/09 02:18:43;;;;;;;0.50;0.50;;;;;;;3.17;100.00;95408.84;5046856;28;20055;-67
2022/04/09 02:21:12;;;;;;;0.50;0.50;;;;;;;3.21;100.00;95420.56;5046448;28;20029;-65
2022/04/09 02:23:37;;;;;;;0.50;0.50;;;;;;;3.04;100.00;95438.72;5047121;28;20560;-68
2022/04/09 02:26:03;;;;;;;0.60;0.60;;;;;;;3.00;100.00;95455.97;5040751;28;20069;-68
2022/04/09 02:28:28;;;;;;;0.60;0.60;;;;;;;3.15;100.00;95468.75;5044582;28;20049;-69
2022/04/09 02:30:54;;;;;;;0.50;0.50;;;;;;;3.18;100.00;95478.84;5047233;28;20037;-67
2022/04/09 02:33:20;;;;;;;0.47;0.47;;;;;;;3.31;100.00;95492.31;5047590;28;20429;-67
2022/04/09 02:35:45;;;;;;;0.70;0.52;;;;;;;3.33;100.00;95501.66;5025115;28;20032;-66
2022/04/09 02:38:11;;;;;;;0.57;0.52;;;;;;;3.39;100.00;95518.41;5042067;28;20029;-67
2022/04/09 02:40:38;;;;;;;0.50;0.50;;;;;;;3.32;100.00;95519.03;5022096;28;20040;-69
2022/04/09 02:43:03;;;;;;;0.40;0.40;;;;;;;3.38;100.00;95527.66;5040844;28;20450;-68
2022/04/09 02:45:29;;;;;;;0.40;0.40;;;;;;;3.41;100.00;95543.22;5041375;28;20063;-69
2022/04/09 02:47:54;;;;;;;0.50;0.50;;;;;;;3.48;100.00;95556.94;5022598;28;20044;-70
2022/04/09 02:50:21;;;;;;;0.47;0.47;;;;;;;3.40;100.00;95558.69;5042236;28;20040;-67
2022/04/09 02:52:47;;;;;;;0.38;0.38;;;;;;;3.35;100.00;95569.75;5040839;28;20026;-67
2022/04/09 02:55:12;;;;;;;0.70;0.50;;;;;;;3.33;100.00;95598.28;5040850;28;20397;-67
2022/04/09 02:57:38;;;;;;;0.47;0.47;;;;;;;3.22;100.00;95598.81;5040795;28;20624;-66
2022/04/09 03:00:07;;;;;;;0.77;0.55;;;;;;;3.33;100.00;95607.22;5039624;28;20034;-66
2022/04/09 03:02:40;;;;;;;0.52;0.45;;;;;;;3.27;100.00;95618.63;5021769;28;20034;-65
2022/04/09 03:05:06;;;;;;;4.10;1.80;;;;;;;3.17;100.00;95636.13;5039279;28;20339;-67
2022/04/09 03:07:32;;;;;;;323.02;88.25;;;;;;;3.16;100.00;95638.06;5038895;28;20070;-67
2022/04/09 03:09:57;;;;;;;10.15;4.63;;;;;;;3.21;100.00;95645.94;5040616;28;20076;-66
2022/04/09 03:12:23;;;;;;;3.00;1.70;;;;;;;3.29;100.00;95638.00;5051498;28;20071;-67
2022/04/09 03:14:48;;;;;;;3.20;1.23;;;;;;;3.23;100.00;95653.69;5041286;28;20056;-67
2022/04/09 03:17:14;;;;;;;1.98;0.88;;;;;;;3.18;100.00;95668.25;5038456;28;20036;-67
2022/04/09 03:19:39;;;;;;;1.25;0.70;;;;;;;3.32;100.00;95680.63;5043349;28;20036;-67
2022/04/09 03:22:05;;;;;;;1.85;1.17;;;;;;;3.26;100.00;95685.50;5039526;28;20041;-66
2022/04/09 03:24:30;;;;;;;1.13;0.77;;;;;;;3.37;100.00;95702.81;5022940;28;20055;-67
2022/04/09 03:26:56;;;;;;;0.60;0.60;;;;;;;3.19;100.00;95715.06;5021201;28;21407;-68
2022/04/09 03:29:21;;;;;;;0.60;0.60;;;;;;;3.32;100.00;95718.53;5024005;28;20128;-66
2022/04/09 03:31:47;;;;;;;0.60;0.60;;;;;;;3.40;100.00;95733.81;5043000;28;20041;-68
2022/04/09 03:34:12;;;;;;;0.50;0.50;;;;;;;3.35;100.00;95751.09;5040156;28;20029;-67
2022/04/09 03:36:38;;;;;;;2.53;0.77;;;;;;;3.30;100.00;95767.56;5038818;28;20078;-65
2022/04/09 03:39:04;;;;;;;0.70;0.70;;;;;;;3.38;100.00;95780.16;5041244;28;20105;-66
2022/04/09 03:41:30;;;;;;;0.70;0.70;;;;;;;3.37;100.00;95783.25;5023996;28;20022;-68
2022/04/09 03:43:56;;;;;;;0.70;0.70;;;;;;;3.31;100.00;95795.41;5051341;28;20052;-68
2022/04/09 03:46:21;;;;;;;0.75;0.60;;;;;;;3.36;100.00;95801.38;5046206;28;20504;-66
2022/04/09 03:48:47;;;;;;;0.75;0.60;;;;;;;3.36;100.00;95808.72;5045815;28;20049;-65
2022/04/09 03:51:12;;;;;;;1.10;1.00;;;;;;;3.05;100.00;95808.19;5026471;28;20028;-66
2022/04/09 03:53:38;;;;;;;0.70;0.70;;;;;;;3.00;100.00;95821.94;5056043;28;20040;-67
2022/04/09 03:56:04;;;;;;;1.10;0.80;;;;;;;2.97;100.00;95827.25;5033742;28;20054;-67
2022/04/09 03:58:30;;;;;;;9.75;4.15;;;;;;;2.86;100.00;95838.53;5045046;28;20033;-67
2022/04/09 04:00:56;;;;;;;1.08;0.73;;;;;;;3.07;100.00;95837.63;5049266;28;20087;-66
2022/04/09 04:03:22;;;;;;;0.80;0.70;;;;;;;3.18;100.00;95843.34;5027750;28;20111;-67
2022/04/09 04:05:48;;;;;;;0.60;0.60;;;;;;;3.19;100.00;95853.84;5024984;28;20083;-67
2022/04/09 04:08:14;;;;;;;0.70;0.70;;;;;;;3.12;100.00;95859.03;5044486;28;20017;-66
2022/04/09 04:10:40;;;;;;;0.80;0.70;;;;;;;3.25;100.00;95876.06;5044601;28;20056;-68
2022/04/09 04:13:06;;;;;;;1.08;0.98;;;;;;;3.32;100.00;95887.09;5043222;28;20021;-66
2022/04/09 04:15:35;;;;;;;1.02;0.75;;;;;;;3.38;100.00;95893.06;5026602;28;20029;-67
2022/04/09 04:18:02;;;;;;;0.82;0.82;;;;;;;3.10;100.00;95890.25;5047288;28;20025;-67
2022/04/09 04:20:28;;;;;;;0.70;0.63;;;;;;;3.05;100.00;95892.06;5050208;28;20053;-67
2022/04/09 04:22:53;;;;;;;2.50;0.82;;;;;;;3.23;100.00;95902.66;5067306;28;20033;-69
2022/04/09 04:25:20;;;;;;;0.70;0.70;;;;;;;3.35;100.00;95912.69;5068658;28;20034;-67
2022/04/09 04:27:46;;;;;;;0.63;0.63;;;;;;;3.49;100.00;95917.78;5048464;28;20025;-66
2022/04/09 04:30:13;;;;;;;1.00;0.90;;;;;;;3.55;100.00;95921.84;5030662;28;20029;-67
2022/04/09 04:32:39;;;;;;;1.08;0.80;;;;;;;3.54;100.00;95937.28;5051279;28;20067;-67
2022/04/09 04:35:05;;;;;;;1.40;0.82;;;;;;;3.58;100.00;95940.91;5049870;28;20033;-67
2022/04/09 04:37:41;;;;;;;0.70;0.70;;;;;;;3.54;100.00;95950.03;5043506;28;20439;-67
2022/04/09 04:40:08;;;;;;;0.70;0.70;;;;;;;3.41;100.00;95947.31;5042616;28;20344;-65
2022/04/09 04:42:34;;;;;;;1.23;0.70;;;;;;;3.32;100.00;95952.06;5030251;28;20024;-65
2022/04/09 04:45:00;;;;;;;1.02;0.80;;;;;;;3.33;100.00;95964.47;5045175;28;20025;-68
2022/04/09 04:47:25;;;;;;;1.00;0.80;;;;;;;3.28;100.00;95980.13;5046204;28;20502;-67
2022/04/09 04:49:51;;;;;;;0.73;0.73;;;;;;;3.20;100.00;95984.53;5037960;28;20033;-67
2022/04/09 04:52:16;;;;;;;0.77;0.77;;;;;;;3.14;100.00;95994.00;5063285;28;20029;-68
2022/04/09 04:54:42;;;;;;;0.80;0.80;;;;;;;3.20;100.00;95992.63;5057259;28;20048;-66
2022/04/09 04:57:07;;;;;;;0.90;0.90;;;;;;;3.14;100.00;95994.00;5057119;28;20052;-66
2022/04/09 04:59:33;;;;;;;0.90;0.90;;;;;;;3.25;100.00;96005.97;5056885;28;20029;-66
2022/04/09 05:01:58;;;;;;;1.52;1.00;;;;;;;3.27;100.00;96011.03;5053899;28;20037;-69
2022/04/09 05:04:25;;;;;;;2.53;0.80;;;;;;;3.16;100.00;96022.28;5056365;28;20039;-66
2022/04/09 05:06:51;;;;;;;1.05;0.93;;;;;;;3.18;100.00;96022.75;5054651;28;20441;-66
2022/04/09 05:09:17;;;;;;;1.38;0.90;;;;;;;3.32;100.00;96021.66;5054809;28;20029;-68
2022/04/09 05:11:42;;;;;;;1.20;0.95;;;;;;;3.11;100.00;96025.19;5054973;28;20029;-67
2022/04/09 05:14:07;;;;;;;1.27;1.17;;;;;;;3.18;100.00;96032.78;5054159;28;20029;-67
2022/04/09 05:16:33;;;;;;;2.55;0.88;;;;;;;2.93;100.00;96048.16;5055682;28;20083;-66
2022/04/09 05:18:58;;;;;;;2.05;1.05;;;;;;;2.69;100.00;96044.22;5057255;28;20033;-65
2022/04/09 05:21:25;;;;;;;1.42;1.10;;;;;;;2.77;100.00;96053.38;5053692;28;20686;-68
2022/04/09 05:23:50;;;;;;;1.30;1.00;;;;;;;2.93;100.00;96058.97;5053444;28;20063;-67
2022/04/09 05:26:16;;;;;;;1.20;1.10;;;;;;;2.80;100.00;96068.97;5054136;28;20032;-68
2022/04/09 05:28:41;;;;;;;2.55;1.20;;;;;;;2.52;100.00;96072.22;5036703;28;20474;-67
2022/04/09 05:31:08;;;;;;;1.42;1.20;;;;;;;2.41;100.00;96079.09;5027640;28;20037;-67
2022/04/09 05:33:34;;;;;;;1.90;1.45;;;;;;;2.44;100.00;96086.56;5053649;28;20071;-67
2022/04/09 05:36:02;;;;;;;3.08;1.13;;;;;;;2.62;100.00;96088.00;5054007;28;20052;-67
2022/04/09 05:38:27;;;;;;;2.40;1.33;;;;;;;2.83;100.00;96096.13;5053929;28;20442;-65
2022/04/09 05:40:53;;;;;;;1.52;1.38;;;;;;;2.78;100.00;96099.03;5053156;28;20033;-66
2022/04/09 05:43:18;;;;;;;1.40;1.30;;;;;;;2.83;100.00;96103.47;5057939;28;20041;-68
2022/04/09 05:45:44;;;;;;;2.58;1.70;;;;;;;2.87;100.00;96104.38;5058356;28;20104;-67
2022/04/09 05:48:09;;;;;;;3.35;1.75;;;;;;;2.41;100.00;96116.94;5054620;28;20139;-67
2022/04/09 05:50:35;;;;;;;2.22;1.55;;;;;;;2.28;100.00;96122.25;5052754;28;20025;-67
2022/04/09 05:53:01;;;;;;;2.65;1.48;;;;;;;2.16;100.00;96124.09;5052427;28;20090;-66
2022/04/09 05:55:26;;;;;;;3.75;1.83;;;;;;;2.29;100.00;96131.97;5051355;28;20485;-67
2022/04/09 05:57:52;;;;;;;2.80;1.63;;;;;;;2.51;100.00;96140.91;5033265;28;20134;-67
2022/04/09 06:00:18;;;;;;;1.80;1.50;;;;;;;2.50;100.00;96147.41;5051920;28;20394;-69
2022/04/09 06:02:44;;;;;;;3.00;1.38;;;;;;;2.45;100.00;96151.13;5045388;28;20036;-66
2022/04/09 06:05:10;;;;;;;2.47;1.90;;;;;;;2.42;100.00;96150.97;5016351;28;20037;-65
2022/04/09 06:07:35;;;;;;;2.72;1.60;;;;;;;2.47;100.00;96153.50;5014106;28;20096;-68
2022/04/09 06:10:03;;;;;;;2.63;2.10;;;;;;;2.39;100.00;96173.25;5038763;28;20401;-66
2022/04/09 06:12:29;;;;;;;3.10;2.00;;;;;;;2.46;100.00;96173.53;5051065;28;20040;-66
2022/04/09 06:14:54;;;;;;;2.72;1.60;;;;;;;2.67;100.00;96173.56;5050531;28;20032;-67
2022/04/09 06:17:20;;;;;;;4.68;1.98;;;;;;;2.69;100.00;96179.44;5051563;28;20466;-66
2022/04/09 06:19:47;;;;;;;2.75;1.83;;;;;;;2.73;100.00;96191.16;5052860;28;20044;-67
2022/04/09 06:22:12;;;;;;;1.90;1.48;;;;;;;2.78;100.00;96193.69;5070747;28;20033;-66
2022/04/09 06:24:38;;;;;;;2.72;1.80;;;;;;;2.66;100.00;96197.09;5071295;28;20036;-65
2022/04/09 06:27:03;;;;;;;2.25;1.70;;;;;;;2.68;100.00;96200.28;5058641;28;20388;-66
2022/04/09 06:29:29;;;;;;;3.85;1.73;;;;;;;2.46;100.00;96208.66;5051162;28;20048;-66
2022/04/09 06:31:54;;;;;;;4.22;2.35;;;;;;;2.54;100.00;96204.31;5038689;28;20039;-67
2022/04/09 06:34:20;;;;;;;5.03;2.53;;;;;;;2.44;100.00;96211.69;5052844;28;20032;-66
2022/04/09 06:36:46;;;;;;;4.93;2.28;;;;;;;2.74;100.00;96216.28;5052293;28;20029;-65
2022/04/09 06:39:11;;;;;;;2.58;1.88;;;;;;;2.86;100.00;96213.66;5052071;28;20037;-67
2022/04/09 06:41:37;;;;;;;3.55;2.50;;;;;;;2.78;100.00;96211.84;5051815;28;20029;-66
2022/04/09 06:44:03;;;;;;;2.92;2.20;;;;;;;2.59;100.00;96210.34;5053658;28;20082;-67
2022/04/09 06:46:28;;;;;;;8.27;2.55;;;;;;;2.61;100.00;96213.53;5053311;28;20036;-69
2022/04/09 06:48:54;;;;;;;4.68;2.38;;;;;;;2.74;100.00;96211.69;5053497;28;20397;-67
2022/04/09 06:51:19;;;;;;;6.03;2.70;;;;;;;3.05;100.00;96210.53;5052889;28;20490;-68
2022/04/09 06:53:45;;;;;;;4.55;2.33;;;;;;;3.12;100.00;96210.00;5050920;28;20033;-67
2022/04/09 06:56:10;;;;;;;5.00;2.67;;;;;;;3.06;100.00;96212.91;5033037;28;20040;-70
2022/04/09 06:58:36;;;;;;;2.85;2.45;;;;;;;3.22;100.00;96206.88;5034565;28;20029;-68
2022/04/09 07:01:02;;;;;;;4.93;2.63;;;;;;;3.30;100.00;96207.97;5053747;28;20071;-67
2022/04/09 07:03:28;;;;;;;3.33;2.35;;;;;;;3.36;100.00;96212.81;5056277;28;20029;-68
2022/04/09 07:05:53;;;;;;;3.85;2.75;;;;;;;3.47;100.00;96212.44;5052831;28;20048;-66
2022/04/09 07:08:19;;;;;;;4.57;3.00;;;;;;;3.77;100.00;96224.72;5053043;28;20025;-65
2022/04/09 07:10:44;;;;;;;4.35;3.33;;;;;;;3.88;100.00;96227.03;5050178;28;20048;-66
2022/04/09 07:13:10;;;;;;;5.85;3.72;;;;;;;3.96;100.00;96228.81;5050652;28;20037;-67
2022/04/09 07:15:35;;;;;;;5.00;3.45;;;;;;;3.97;100.00;96235.84;5052572;28;20029;-68
2022/04/09 07:18:02;;;;;;;6.85;3.60;;;;;;;4.28;100.00;96237.25;5054765;28;20080;-68
2022/04/09 07:20:29;;;;;;;5.68;3.83;;;;;;;4.16;100.00;96246.16;5047333;28;20057;-68
2022/04/09 07:22:54;;;;;;;5.53;3.70;;;;;;;4.47;100.00;96240.22;5054134;28;20044;-67
2022/04/09 07:25:20;;;;;;;5.03;3.05;;;;;;;4.54;100.00;96237.75;5055814;28;20132;-68
2022/04/09 07:27:47;;;;;;;4.65;3.00;;;;;;;4.67;100.00;96243.16;5055340;28;20017;-67
2022/04/09 07:30:13;;;;;;;4.88;3.53;;;;;;;4.58;100.00;96246.00;5055667;28;20485;-67
2022/04/09 07:32:39;;;;;;;6.72;3.67;;;;;;;4.69;100.00;96243.63;5058053;28;20434;-68
2022/04/09 07:35:05;;;;;;;6.45;3.70;;;;;;;4.63;100.00;96244.97;5055349;28;20040;-67
2022/04/09 07:37:31;;;;;;;5.97;3.80;;;;;;;4.64;100.00;96246.56;5054729;28;20025;-68
2022/04/09 07:39:57;;;;;;;5.70;3.20;;;;;;;4.55;100.00;96249.38;5055056;28;20032;-67
2022/04/09 07:42:23;;;;;;;7.30;4.07;;;;;;;4.50;100.00;96249.59;5057005;28;20393;-69
2022/04/09 07:44:48;;;;;;;5.57;3.90;;;;;;;4.97;100.00;96252.66;5054568;28;20029;-68
2022/04/09 07:47:14;;;;;;;6.35;3.78;;;;;;;4.79;100.00;96251.31;5053744;28;20041;-67
2022/04/09 07:49:44;;;;;;;6.82;4.45;;;;;;;5.59;100.00;96249.78;5055090;28;20469;-67
2022/04/09 07:52:10;;;;;;;5.97;4.22;;;;;;;6.69;95.50;96255.78;5054939;28;20082;-67
2022/04/09 07:54:36;;;;;;;5.45;3.83;;;;;;;6.67;96.19;96253.41;5054624;28;20033;-67
2022/04/09 07:57:02;;;;;;;5.70;3.80;;;;;;;7.75;87.24;96257.72;5053095;28;20036;-68
2022/04/09 07:59:27;;;;;;;8.88;4.25;;;;;;;7.68;84.04;96261.09;5054193;28;20037;-67
2022/04/09 08:01:52;;;;;;;6.22;4.07;;;;;;;7.70;84.48;96260.75;5049165;28;20025;-67
2022/04/09 08:04:18;;;;;;;7.20;4.10;;;;;;;8.27;79.97;96261.06;5029735;28;20051;-68
2022/04/09 08:06:43;;;;;;;5.82;3.72;;;;;;;8.41;81.59;96261.31;5032978;28;20119;-66
2022/04/09 08:09:08;;;;;;;7.55;4.38;;;;;;;7.62;83.06;96268.00;5031910;28;20037;-66
2022/04/09 08:11:34;;;;;;;6.97;3.97;;;;;;;8.07;76.84;96266.53;5031746;28;20082;-67
2022/04/09 08:14:00;;;;;;;9.13;3.60;;;;;;;7.67;78.24;96267.72;5037043;28;20041;-68
2022/04/09 08:16:26;;;;;;;7.07;3.55;;;;;;;7.17;82.75;96272.09;5032834;28;20049;-68
2022/04/09 08:18:51;;;;;;;5.50;3.33;;;;;;;7.06;81.74;96269.13;5042492;28;20083;-68
2022/04/09 08:21:18;;;;;;;6.10;3.83;;;;;;;8.03;79.30;96269.19;5037538;28;20516;-66
2022/04/09 08:23:44;;;;;;;6.47;4.00;;;;;;;8.33;77.43;96263.09;5041500;28;20040;-66
2022/04/09 08:26:09;;;;;;;4.78;3.60;;;;;;;7.96;75.56;96271.78;5026837;28;20042;-66
2022/04/09 08:28:36;;;;;;;6.68;4.70;;;;;;;7.30;82.12;96267.31;5051133;28;20041;-66
2022/04/09 08:31:02;;;;;;;5.63;3.10;;;;;;;8.08;75.76;96270.84;5041740;28;20041;-68
2022/04/09 08:33:28;;;;;;;6.30;3.53;;;;;;;8.23;76.74;96259.06;5012729;28;20040;-66
2022/04/09 08:35:53;;;;;;;6.10;2.85;;;;;;;8.16;78.80;96264.38;5024570;28;20489;-68
2022/04/09 08:38:19;;;;;;;7.50;3.67;;;;;;;8.71;73.64;96266.13;5017890;28;20044;-67
2022/04/09 08:40:45;;;;;;;5.03;3.45;;;;;;;8.84;72.70;96267.53;5038289;28;20057;-67
2022/04/09 08:43:11;;;;;;;5.85;3.60;;;;;;;8.56;73.88;96267.84;5023633;28;20139;-65
2022/04/09 08:45:40;;;;;;;5.47;4.00;;;;;;;8.61;73.74;96267.53;5035511;28;20116;-67
2022/04/09 08:48:07;;;;;;;5.55;3.85;;;;;;;8.02;72.73;96275.00;5048907;28;20060;-64
2022/04/09 08:50:32;;;;;;;5.28;3.67;;;;;;;8.06;73.66;96273.13;5048529;28;20084;-67
2022/04/09 08:53:05;;;;;;;7.35;4.00;;;;;;;7.27;75.21;96268.78;5038335;28;20041;-66
2022/04/09 08:55:30;;;;;;;8.10;4.03;;;;;;;7.17;77.29;96270.13;5012469;28;20041;-67
2022/04/09 08:57:56;;;;;;;6.30;3.80;;;;;;;7.01;79.27;96264.72;5022839;28;20045;-68
2022/04/09 09:00:21;;;;;;;6.03;3.50;;;;;;;8.41;72.45;96270.28;5016278;28;20940;-66
2022/04/09 09:02:51;;;;;;;8.00;3.60;;;;;;;8.92;71.41;96271.94;5022104;28;20128;-66
2022/04/09 09:05:48;;;;;;;;;;;;;;;9.65;67.89;96265.53;5017672;28;20186;-68
2022/04/09 09:08:15;;;;;;;5.00;3.30;;;;;;;8.53;69.65;96279.47;5005162;28;20291;-66
2022/04/09 09:10:41;;;;;;;5.50;3.38;;;;;;;8.39;68.84;96271.78;5010988;28;20056;-67
2022/04/09 09:13:11;;;;;;;5.30;2.63;;;;;;;8.64;68.08;96274.19;5014538;28;20469;-70
2022/04/09 09:15:52;;;;;;;5.05;3.35;;;;;;;9.13;66.85;96279.69;5039834;28;20131;-66
2022/04/09 09:18:20;;;;;;;4.25;2.95;;;;;;;9.66;66.27;96272.59;5006624;28;20099;-68
2022/04/09 09:20:54;;;;;;;5.22;3.13;;;;;;;9.75;71.22;96276.63;5040872;28;20053;-69
2022/04/09 09:23:21;;;;;;;6.05;3.60;;;;;;;10.51;64.53;96275.56;5041771;28;20486;-66
2022/04/09 09:25:49;;;;;;;5.00;3.03;;;;;;;8.29;69.90;96277.84;5048286;28;20065;-67
2022/04/09 09:28:22;;;;;;;5.55;2.80;;;;;;;8.09;71.32;96291.50;5025838;28;20033;-66
2022/04/09 09:30:50;;;;;;;4.30;3.00;;;;;;;8.36;70.53;96294.34;5056015;28;20044;-69
2022/04/09 09:33:16;;;;;;;3.90;2.78;;;;;;;8.98;69.18;96297.00;5047532;28;20124;-66
2022/04/09 09:35:54;;;;;;;3.70;2.60;;;;;;;8.65;70.39;96300.34;5038363;28;20133;-65
2022/04/09 09:38:29;;;;;;;3.22;2.40;;;;;;;8.32;72.50;96315.31;5026540;28;20029;-67
2022/04/09 09:40:56;;;;;;;2.90;2.20;;;;;;;7.60;77.21;96322.06;5036078;28;20155;-66
2022/04/09 09:43:23;;;;;;;4.50;2.88;;;;;;;7.24;80.92;96321.28;5023109;28;20159;-65
2022/04/09 09:45:50;;;;;;;4.80;3.10;;;;;;;7.19;81.26;96326.97;5033571;28;20041;-66
2022/04/09 09:48:19;;;;;;;4.47;2.95;;;;;;;6.92;83.79;96329.47;5025930;28;20041;-66
2022/04/09 09:50:45;;;;;;;3.88;2.83;;;;;;;6.56;84.54;96327.78;5036031;28;20060;-67
2022/04/09 09:53:11;;;;;;;4.15;2.95;;;;;;;6.69;86.18;96327.34;5032280;28;20052;-65
2022/04/09 09:55:46;;;;;;;4.90;3.13;;;;;;;6.21;89.66;96331.13;5008026;28;20065;-65
2022/04/09 09:58:18;;;;;;;4.38;2.50;;;;;;;5.72;92.49;96332.06;5020557;28;20037;-74
2022/04/09 10:00:44;;;;;;;4.53;3.22;;;;;;;5.70;95.69;96331.59;5061139;28;20102;-66
2022/04/09 10:03:13;;;;;;;5.63;3.42;;;;;;;5.97;92.62;96330.06;5023996;28;20037;-64
2022/04/09 10:05:40;;;;;;;5.23;3.60;;;;;;;6.37;88.52;96329.22;5007227;28;20045;-65
2022/04/09 10:08:07;;;;;;;4.85;3.58;;;;;;;6.81;86.50;96331.91;5015650;28;20284;-64
2022/04/09 10:10:38;;;;;;;6.80;4.22;;;;;;;6.42;88.80;96328.97;5013975;28;20033;-65
2022/04/09 10:13:04;;;;;;;7.65;3.72;;;;;;;6.31;88.08;96333.34;5041456;28;20104;-64
2022/04/09 10:15:31;;;;;;;4.60;3.72;;;;;;;7.26;80.45;96338.03;5033334;28;20051;-66
2022/04/09 10:17:59;;;;;;;5.18;3.15;;;;;;;7.56;77.59;96335.63;5012669;28;20120;-65
2022/04/09 10:20:27;;;;;;;5.50;3.03;;;;;;;7.73;78.28;96337.16;5028106;28;20427;-67
2022/04/09 10:23:00;;;;;;;5.45;3.22;;;;;;;7.59;78.22;96334.09;5013875;28;20538;-65
2022/04/09 10:25:29;;;;;;;4.85;3.20;;;;;;;7.87;77.04;96328.47;5013004;28;20033;-65
2022/04/09 10:28:03;;;;;;;6.97;3.50;;;;;;;8.94;73.01;96324.25;5017311;28;20037;-65
2022/04/09 10:30:39;;;;;;;4.30;3.03;;;;;;;9.49;67.79;96325.88;5036127;28;20045;-65
2022/04/09 10:33:22;;;;;;;5.10;2.63;;;;;;;9.38;68.96;96333.91;5027332;28;20054;-65
2022/04/09 10:35:48;;;;;;;4.18;2.97;;;;;;;9.80;64.61;96323.97;5030453;28;20128;-68
2022/04/09 10:38:22;;;;;;;4.18;2.70;;;;;;;10.28;65.00;96321.41;5021863;28;20155;-67
2022/04/09 10:41:00;;;;;;;7.13;2.88;;;;;;;10.79;58.90;96331.00;5014348;28;20041;-69
2022/04/09 10:43:25;;;;;;;4.93;2.00;;;;;;;11.17;57.26;96315.25;5026282;28;20247;-68
2022/04/09 10:46:11;;;;;;;5.18;2.10;;;;;;;12.33;50.47;96314.75;5028503;28;20054;-67
2022/04/09 10:48:42;;;;;;;5.10;2.08;;;;;;;13.88;42.84;96310.09;5029191;28;20090;-66
2022/04/09 10:51:11;;;;;;;3.90;1.80;;;;;;;13.88;42.45;96308.16;5022152;28;20120;-67
2022/04/09 10:53:42;;;;;;;2.90;2.00;;;;;;;13.57;46.11;96312.53;5033460;28;20029;-69
2022/04/09 10:56:28;;;;;;;5.00;2.00;;;;;;;14.62;41.39;96316.50;5024476;28;20044;-65
2022/04/09 10:59:08;;;;;;;3.67;1.38;;;;;;;13.31;38.19;96313.75;5032284;28;20048;-66
2022/04/09 11:01:46;;;;;;;4.18;1.50;;;;;;;12.30;38.96;96313.56;5021101;28;20033;-67
2022/04/09 11:04:34;;;;;;;2.75;1.60;;;;;;;11.22;41.28;96321.19;5033070;28;20106;-67
2022/04/09 11:07:17;;;;;;;2.70;1.63;;;;;;;10.69;42.11;96326.97;5036343;28;20501;-65
2022/04/09 11:09:43;;;;;;;3.95;1.92;;;;;;;10.26;42.52;96323.75;5036619;28;20037;-66
2022/04/09 11:12:10;;;;;;;4.75;1.60;;;;;;;10.18;43.04;96331.09;5027352;28;20068;-66
2022/04/09 11:14:42;;;;;;;2.30;1.65;;;;;;;10.45;42.94;96320.09;5033335;28;20044;-66
2022/04/09 11:17:35;;;;;;;6.32;5.32;;;;;;;11.69;45.63;96323.47;5025705;28;20506;-71
2022/04/09 11:20:10;;;;;;;4.47;3.25;;;;;;;10.97;38.49;96326.44;5026815;28;20519;-66
2022/04/09 11:22:40;;;;;;;7.63;3.00;;;;;;;11.72;40.21;96326.22;5009446;28;20041;-69
2022/04/09 11:25:17;;;;;;;2.83;1.55;;;;;;;11.41;43.77;96322.88;5000621;28;20042;-69
2022/04/09 11:27:43;;;;;;;4.28;2.13;;;;;;;11.54;40.68;96328.03;5040541;28;20463;-69
2022/04/09 11:30:09;;;;;;;2.00;1.48;;;;;;;11.38;41.40;96323.66;5029090;28;20037;-67
2022/04/09 11:32:38;;;;;;;3.72;2.05;;;;;;;11.57;39.72;96324.53;5035938;28;20064;-67
2022/04/09 11:35:10;;;;;;;4.50;2.55;;;;;;;11.88;38.63;96330.59;5033674;28;20036;-66
2022/04/09 11:37:43;;;;;;;3.35;1.55;;;;;;;12.24;35.53;96318.66;5035827;28;20052;-68
2022/04/09 11:40:10;;;;;;;3.65;1.38;;;;;;;12.40;38.28;96317.50;5033980;28;20049;-71